createdAt,value
2023-03-12T00:02:27.468Z,10.11
2023-03-12T00:04:56.199Z,10.13
2023-03-12T00:07:24.984Z,10.12
2023-03-12T00:09:54.492Z,10.11
2023-03-12T00:12:25.021Z,10.10
2023-03-12T00:14:53.619Z,10.11
2023-03-12T00:17:22.082Z,10.12
2023-03-12T00:19:51.999Z,10.14
2023-03-12T00:22:23.350Z,10.16
2023-03-12T00:24:52.404Z,10.18
2023-03-12T00:27:21.195Z,10.19
2023-03-12T00:29:50.528Z,10.19
2023-03-12T00:32:20.046Z,10.21
2023-03-12T00:34:51.069Z,10.22
2023-03-12T00:37:20.268Z,10.25
2023-03-12T00:39:50.592Z,10.29
2023-03-12T00:42:19.494Z,10.33
2023-03-12T00:44:48.987Z,10.35
2023-03-12T00:47:17.872Z,10.38
2023-03-12T00:49:46.558Z,10.41
2023-03-12T00:52:15.241Z,10.44
2023-03-12T00:54:44.030Z,10.45
2023-03-12T00:57:12.994Z,10.45
2023-03-12T00:59:42.637Z,10.46
2023-03-12T01:02:11.215Z,10.44
2023-03-12T01:04:40.821Z,10.40
2023-03-12T01:07:10.850Z,10.42
2023-03-12T01:09:39.627Z,10.42
2023-03-12T01:12:09.030Z,10.45
2023-03-12T01:14:37.519Z,10.47
2023-03-12T01:17:06.302Z,10.48
2023-03-12T01:19:34.985Z,10.48
2023-03-12T01:22:03.569Z,10.48
2023-03-12T01:24:32.092Z,10.48
2023-03-12T01:27:00.724Z,10.48
2023-03-12T01:29:29.537Z,10.46
2023-03-12T01:31:58.618Z,10.47
2023-03-12T01:34:27.307Z,10.48
2023-03-12T01:36:55.995Z,10.51
2023-03-12T01:39:26.107Z,10.49
2023-03-12T01:41:55.443Z,10.45
2023-03-12T01:44:24.297Z,10.43
2023-03-12T01:46:52.886Z,10.40
2023-03-12T01:49:24.746Z,10.36
2023-03-12T01:52:02.125Z,10.34
2023-03-12T01:54:37.873Z,10.34
2023-03-12T01:57:09.226Z,10.36
2023-03-12T01:59:38.934Z,10.38
2023-03-12T02:02:07.616Z,10.39
2023-03-12T02:04:37.323Z,10.41
2023-03-12T02:07:08.173Z,10.42
2023-03-12T02:09:44.034Z,10.44
2023-03-12T02:12:13.541Z,10.45
2023-03-12T02:14:42.410Z,10.47
2023-03-12T02:17:13.453Z,10.46
2023-03-12T02:19:49.228Z,10.44
2023-03-12T02:22:19.119Z,10.41
2023-03-12T02:25:09.518Z,10.42
2023-03-12T02:27:38.708Z,10.42
2023-03-12T02:30:16.114Z,10.41
2023-03-12T02:33:08.131Z,10.41
2023-03-12T02:35:37.366Z,10.42
2023-03-12T02:38:25.880Z,10.50
2023-03-12T02:40:54.563Z,10.49
2023-03-12T02:43:28.475Z,10.44
2023-03-12T02:45:57.802Z,10.42
2023-03-12T02:48:26.971Z,10.40
2023-03-12T02:50:56.074Z,10.38
2023-03-12T02:53:25.367Z,10.40
2023-03-12T02:55:54.257Z,10.40
2023-03-12T02:58:23.250Z,10.41
2023-03-12T03:00:53.778Z,10.40
2023-03-12T03:03:22.774Z,10.37
2023-03-12T03:05:52.485Z,10.32
2023-03-12T03:08:26.080Z,10.30
2023-03-12T03:10:55.586Z,10.30
2023-03-12T03:13:24.477Z,10.28
2023-03-12T03:15:54.243Z,10.21
2023-03-12T03:18:24.930Z,10.17
2023-03-12T03:20:57.456Z,10.16
2023-03-12T03:23:27.921Z,10.14
2023-03-12T03:25:56.713Z,10.10
2023-03-12T03:28:25.817Z,10.10
2023-03-12T03:30:54.915Z,10.09
2023-03-12T03:33:25.942Z,10.03
2023-03-12T03:35:55.822Z,10.05
2023-03-12T03:38:24.751Z,10.10
2023-03-12T03:40:53.742Z,10.12
2023-03-12T03:43:22.450Z,10.15
2023-03-12T03:45:58.438Z,10.15
2023-03-12T03:48:27.999Z,10.11
2023-03-12T03:51:00.559Z,10.08
2023-03-12T03:53:32.524Z,10.02
2023-03-12T03:56:14.624Z,9.97
2023-03-12T03:58:47.318Z,9.97
2023-03-12T04:01:16.912Z,9.96
2023-03-12T04:03:46.207Z,9.94
2023-03-12T04:06:15.610Z,9.95
2023-03-12T04:08:46.864Z,10.00
2023-03-12T04:11:20.457Z,9.98
2023-03-12T04:13:49.859Z,9.92
2023-03-12T04:16:25.251Z,9.78
2023-03-12T04:18:54.939Z,9.64
2023-03-12T04:21:24.411Z,9.58
2023-03-12T04:23:55.662Z,9.57
2023-03-12T04:26:27.644Z,9.60
2023-03-12T04:28:56.925Z,9.58
2023-03-12T04:31:26.202Z,9.58
2023-03-12T04:33:55.520Z,9.57
2023-03-12T04:36:25.230Z,9.55
2023-03-12T04:38:54.837Z,9.52
2023-03-12T04:41:27.517Z,9.48
2023-03-12T04:44:03.586Z,9.42
2023-03-12T04:46:32.464Z,9.38
2023-03-12T04:49:03.004Z,9.38
2023-03-12T04:51:33.133Z,9.39
2023-03-12T04:54:05.290Z,9.36
2023-03-12T04:56:34.366Z,9.33
2023-03-12T04:59:03.684Z,9.30
2023-03-12T05:01:33.227Z,9.27
2023-03-12T05:04:04.143Z,9.28
2023-03-12T05:06:34.002Z,9.26
2023-03-12T05:09:04.368Z,9.25
2023-03-12T05:11:38.411Z,9.29
2023-03-12T05:14:11.868Z,9.29
2023-03-12T05:16:41.656Z,9.25
2023-03-12T05:19:12.445Z,9.18
2023-03-12T05:21:44.693Z,9.13
2023-03-12T05:24:13.675Z,9.10
2023-03-12T05:26:42.612Z,9.08
2023-03-12T05:29:17.466Z,9.06
2023-03-12T05:31:46.944Z,9.05
2023-03-12T05:34:16.622Z,8.98
2023-03-12T05:36:46.441Z,8.91
2023-03-12T05:39:20.453Z,8.84
2023-03-12T05:41:49.943Z,8.74
2023-03-12T05:44:19.649Z,8.58
2023-03-12T05:46:59.020Z,8.34
2023-03-12T05:49:28.388Z,8.16
2023-03-12T05:51:57.073Z,8.03
2023-03-12T05:54:25.450Z,7.90
2023-03-12T05:56:56.192Z,7.81
2023-03-12T05:59:25.069Z,7.75
2023-03-12T06:01:53.828Z,7.66
2023-03-12T06:04:22.448Z,7.53
2023-03-12T06:06:52.251Z,7.37
2023-03-12T06:09:20.444Z,7.24
2023-03-12T06:11:49.449Z,7.16
2023-03-12T06:14:18.199Z,7.11
2023-03-12T06:16:48.561Z,7.09
2023-03-12T06:19:18.037Z,7.02
2023-03-12T06:21:50.095Z,6.99
2023-03-12T06:24:18.913Z,6.97
2023-03-12T06:26:51.552Z,6.99
2023-03-12T06:29:20.879Z,7.03
2023-03-12T06:31:52.414Z,7.06
2023-03-12T06:34:24.178Z,7.01
2023-03-12T06:36:52.853Z,6.99
2023-03-12T06:39:21.673Z,7.02
2023-03-12T06:41:50.332Z,7.07
2023-03-12T06:44:19.934Z,7.11
2023-03-12T06:46:48.704Z,7.13
2023-03-12T06:49:18.191Z,7.14
2023-03-12T06:51:46.775Z,7.13
2023-03-12T06:54:15.391Z,7.07
2023-03-12T06:56:44.385Z,7.01
2023-03-12T06:59:13.174Z,6.99
2023-03-12T07:01:44.522Z,7.02
2023-03-12T07:04:13.034Z,7.03
2023-03-12T07:06:41.589Z,6.98
2023-03-12T07:09:12.429Z,6.96
2023-03-12T07:11:41.419Z,6.96
2023-03-12T07:14:10.927Z,6.94
2023-03-12T07:16:44.749Z,6.85
2023-03-12T07:19:14.051Z,6.81
2023-03-12T07:21:42.488Z,6.69
2023-03-12T07:24:13.361Z,6.61
2023-03-12T07:26:43.856Z,6.57
2023-03-12T07:29:12.467Z,6.55
2023-03-12T07:31:42.392Z,6.52
2023-03-12T07:34:11.572Z,6.48
2023-03-12T07:36:43.250Z,6.42
2023-03-12T07:39:12.322Z,6.39
2023-03-12T07:41:40.594Z,6.34
2023-03-12T07:44:11.629Z,6.27
2023-03-12T07:46:40.687Z,6.12
2023-03-12T07:49:09.310Z,5.98
2023-03-12T07:51:39.237Z,5.91
2023-03-12T07:54:08.234Z,5.86
2023-03-12T07:56:39.497Z,5.91
2023-03-12T07:59:08.568Z,6.00
2023-03-12T08:01:39.327Z,6.02
2023-03-12T08:04:08.129Z,6.01
2023-03-12T08:06:39.081Z,5.98
2023-03-12T08:09:07.814Z,5.93
2023-03-12T08:11:37.413Z,5.95
2023-03-12T08:14:09.798Z,5.99
2023-03-12T08:16:38.594Z,6.06
2023-03-12T08:19:07.983Z,6.17
2023-03-12T08:21:37.379Z,6.26
2023-03-12T08:24:06.059Z,6.34
2023-03-12T08:26:34.744Z,6.32
2023-03-12T08:29:04.146Z,6.23
2023-03-12T08:31:32.905Z,6.08
2023-03-12T08:34:01.743Z,5.97
2023-03-12T08:36:30.618Z,5.92
2023-03-12T08:39:06.263Z,5.84
2023-03-12T08:41:34.439Z,5.77
2023-03-12T08:44:02.509Z,5.72
2023-03-12T08:46:31.393Z,5.64
2023-03-12T08:48:59.981Z,5.55
2023-03-12T08:51:28.774Z,5.48
2023-03-12T08:53:57.151Z,5.38
2023-03-12T08:56:27.267Z,5.34
2023-03-12T08:58:55.954Z,5.33
2023-03-12T09:01:25.198Z,5.27
2023-03-12T09:03:55.576Z,5.23
2023-03-12T09:06:24.282Z,5.25
2023-03-12T09:08:58.171Z,5.23
2023-03-12T09:11:26.980Z,5.14
2023-03-12T09:14:26.586Z,5.06
2023-03-12T09:16:44.243Z,5.05
2023-03-12T09:19:13.409Z,5.05
2023-03-12T09:21:44.022Z,5.03
2023-03-12T09:24:13.121Z,5.04
2023-03-12T09:26:42.678Z,5.07
2023-03-12T09:29:13.151Z,5.09
2023-03-12T09:31:41.933Z,5.10
2023-03-12T09:34:13.898Z,5.11
2023-03-12T09:36:43.093Z,5.09
2023-03-12T09:39:11.779Z,5.06
2023-03-12T09:41:41.904Z,5.07
2023-03-12T09:44:17.140Z,5.06
2023-03-12T09:46:51.268Z,5.08
2023-03-12T09:49:30.276Z,5.01
2023-03-12T09:52:03.464Z,4.92
2023-03-12T09:54:42.864Z,4.90
2023-03-12T09:57:12.930Z,4.87
2023-03-12T09:59:43.861Z,4.80
2023-03-12T10:02:19.098Z,4.75
2023-03-12T10:05:09.064Z,4.77
2023-03-12T10:07:39.994Z,4.77
2023-03-12T10:10:21.820Z,4.75
2023-03-12T10:13:10.684Z,4.72
2023-03-12T10:16:00.022Z,4.74
2023-03-12T10:18:39.130Z,4.77
2023-03-12T10:21:08.269Z,4.74
2023-03-12T10:23:46.117Z,4.73
2023-03-12T10:26:25.748Z,4.71
2023-03-12T10:29:14.784Z,4.70
2023-03-12T10:31:49.705Z,4.65
2023-03-12T10:34:23.718Z,4.64
2023-03-12T10:36:53.730Z,4.61
2023-03-12T10:39:23.032Z,4.60
2023-03-12T10:41:53.463Z,4.54
2023-03-12T10:44:22.864Z,4.51
2023-03-12T10:46:54.308Z,4.50
2023-03-12T10:49:25.766Z,4.57
2023-03-12T10:52:13.183Z,4.62
2023-03-12T10:54:45.864Z,4.67
2023-03-12T10:57:15.791Z,4.69
2023-03-12T10:59:45.407Z,4.72
2023-03-12T11:02:29.139Z,4.77
2023-03-12T11:04:58.320Z,4.80
2023-03-12T11:07:34.071Z,4.84
2023-03-12T11:10:06.754Z,4.87
2023-03-12T11:12:40.565Z,4.86
2023-03-12T11:15:20.933Z,4.85
2023-03-12T11:17:49.802Z,4.85
2023-03-12T11:20:21.511Z,4.85
2023-03-12T11:22:51.655Z,4.86
2023-03-12T11:25:22.525Z,4.87
2023-03-12T11:27:53.161Z,4.86
2023-03-12T11:30:40.366Z,4.82
2023-03-12T11:33:09.872Z,4.75
2023-03-12T11:35:42.117Z,4.68
2023-03-12T11:38:31.409Z,4.58
2023-03-12T11:41:18.836Z,4.47
2023-03-12T11:44:02.717Z,4.39
2023-03-12T11:46:53.661Z,4.35
2023-03-12T11:49:29.126Z,4.35
2023-03-12T11:52:07.033Z,4.39
2023-03-12T11:54:56.408Z,4.52
2023-03-12T11:57:40.648Z,4.59
2023-03-12T12:00:14.967Z,4.62
2023-03-12T12:02:44.274Z,4.60
2023-03-12T12:05:21.658Z,4.49
2023-03-12T12:07:53.109Z,4.37
2023-03-12T12:10:27.788Z,4.28
2023-03-12T12:13:03.380Z,4.30
2023-03-12T12:15:52.184Z,4.33
2023-03-12T12:18:29.527Z,4.29
2023-03-12T12:21:03.435Z,4.20
2023-03-12T12:23:52.601Z,4.12
2023-03-12T12:26:40.546Z,4.03
2023-03-12T12:29:22.348Z,4.01
2023-03-12T12:31:58.355Z,4.10
2023-03-12T12:34:32.452Z,4.22
2023-03-12T12:37:04.256Z,4.29
2023-03-12T12:39:35.724Z,4.34
2023-03-12T12:42:06.437Z,4.32
2023-03-12T12:44:38.815Z,4.26
2023-03-12T12:47:07.601Z,4.20
2023-03-12T12:49:41.434Z,4.20
2023-03-12T12:52:12.139Z,4.19
2023-03-12T12:54:44.099Z,4.16
2023-03-12T12:57:15.039Z,4.10
2023-03-12T12:59:52.386Z,4.01
2023-03-12T13:02:26.587Z,4.02
2023-03-12T13:04:56.664Z,4.09
2023-03-12T13:07:28.094Z,4.16
2023-03-12T13:10:00.103Z,4.23
2023-03-12T13:12:30.909Z,4.24
2023-03-12T13:15:00.217Z,4.22
2023-03-12T13:17:30.022Z,4.19
2023-03-12T13:20:01.717Z,4.13
2023-03-12T13:22:37.942Z,4.07
2023-03-12T13:25:21.582Z,4.01
2023-03-12T13:28:00.307Z,4.02
2023-03-12T13:30:35.656Z,4.04
2023-03-12T13:33:05.376Z,4.08
2023-03-12T13:35:37.089Z,4.11
2023-03-12T13:38:07.216Z,4.16
2023-03-12T13:40:37.766Z,4.16
2023-03-12T13:43:06.765Z,4.15
2023-03-12T13:45:41.884Z,4.09
2023-03-12T13:48:17.954Z,4.01
2023-03-12T13:50:52.311Z,3.99
2023-03-12T13:53:41.234Z,3.97
2023-03-12T13:56:10.416Z,3.92
2023-03-12T13:58:45.961Z,3.98
2023-03-12T14:01:16.017Z,4.06
2023-03-12T14:03:49.917Z,4.10
2023-03-12T14:06:20.209Z,4.14
2023-03-12T14:09:06.008Z,4.22
2023-03-12T14:11:43.592Z,4.28
2023-03-12T14:14:24.780Z,4.24
2023-03-12T14:16:57.765Z,4.18
2023-03-12T14:19:27.396Z,4.15
2023-03-12T14:21:57.485Z,4.17
2023-03-12T14:24:28.429Z,4.23
2023-03-12T14:27:01.816Z,4.27
2023-03-12T14:29:33.882Z,4.28
2023-03-12T14:32:04.408Z,4.26
2023-03-12T14:34:39.658Z,4.23
2023-03-12T14:37:25.077Z,4.19
2023-03-12T14:40:14.808Z,4.22
2023-03-12T14:42:44.104Z,4.18
2023-03-12T14:45:18.628Z,4.14
2023-03-12T14:47:53.557Z,4.10
2023-03-12T14:50:22.467Z,4.07
2023-03-12T14:52:53.898Z,4.03
2023-03-12T14:55:23.812Z,4.01
2023-03-12T14:58:06.835Z,3.98
2023-03-12T15:00:35.527Z,3.98
2023-03-12T15:03:11.168Z,3.97
2023-03-12T15:05:48.250Z,3.93
2023-03-12T15:08:17.038Z,3.91
2023-03-12T15:10:53.785Z,3.92
2023-03-12T15:13:23.123Z,3.91
2023-03-12T15:15:52.976Z,3.89
2023-03-12T15:18:29.700Z,3.87
2023-03-12T15:20:59.517Z,3.80
2023-03-12T15:23:36.801Z,3.77
2023-03-12T15:26:09.785Z,3.77
2023-03-12T15:28:38.786Z,3.74
2023-03-12T15:31:10.778Z,3.71
2023-03-12T15:33:40.662Z,3.71
2023-03-12T15:36:19.628Z,3.74
2023-03-12T15:38:56.522Z,3.71
2023-03-12T15:41:27.192Z,3.67
2023-03-12T15:43:56.249Z,3.62
2023-03-12T15:46:25.759Z,3.58
2023-03-12T15:48:56.219Z,3.56
2023-03-12T15:51:29.598Z,3.52
2023-03-12T15:54:07.254Z,3.43
2023-03-12T15:56:36.918Z,3.34
2023-03-12T15:59:16.354Z,3.29
2023-03-12T16:01:49.548Z,3.24
2023-03-12T16:04:18.650Z,3.17
2023-03-12T16:06:49.430Z,3.13
2023-03-12T16:09:20.536Z,3.12
2023-03-12T16:11:49.305Z,3.12
2023-03-12T16:14:25.053Z,3.12
2023-03-12T16:16:58.964Z,3.10
2023-03-12T16:19:29.131Z,3.09
2023-03-12T16:21:58.803Z,3.06
2023-03-12T16:24:29.321Z,3.03
2023-03-12T16:26:58.520Z,3.02
2023-03-12T16:29:34.800Z,2.96
2023-03-12T16:32:09.713Z,2.90
2023-03-12T16:34:38.705Z,2.89
2023-03-12T16:37:10.881Z,2.89
2023-03-12T16:39:39.494Z,2.93
2023-03-12T16:42:13.359Z,2.95
2023-03-12T16:44:43.093Z,2.95
2023-03-12T16:47:13.916Z,2.98
2023-03-12T16:49:44.025Z,2.97
2023-03-12T16:52:17.621Z,2.97
2023-03-12T16:54:48.561Z,2.95
2023-03-12T16:57:23.760Z,2.93
2023-03-12T16:59:52.905Z,2.95
2023-03-12T17:02:22.094Z,2.97
2023-03-12T17:04:53.553Z,2.97
2023-03-12T17:07:22.537Z,2.97
2023-03-12T17:09:51.633Z,2.99
2023-03-12T17:12:31.076Z,2.92
2023-03-12T17:14:59.962Z,2.84
2023-03-12T17:17:30.079Z,2.77
2023-03-12T17:20:00.615Z,2.72
2023-03-12T17:22:29.700Z,2.65
2023-03-12T17:24:59.511Z,2.62
2023-03-12T17:27:28.021Z,2.59
2023-03-12T17:29:56.781Z,2.59
2023-03-12T17:32:25.677Z,2.60
2023-03-12T17:34:55.994Z,2.62
2023-03-12T17:37:24.577Z,2.62
2023-03-12T17:39:53.775Z,2.61
2023-03-12T17:42:23.176Z,2.63
2023-03-12T17:44:52.275Z,2.63
2023-03-12T17:47:20.851Z,2.61
2023-03-12T17:49:51.051Z,2.58
2023-03-12T17:52:20.080Z,2.58
2023-03-12T17:54:48.867Z,2.58
2023-03-12T17:57:18.361Z,2.54
2023-03-12T17:59:47.219Z,2.51
2023-03-12T18:02:16.349Z,2.47
2023-03-12T18:04:45.324Z,2.44
2023-03-12T18:07:14.349Z,2.43
2023-03-12T18:09:43.236Z,2.41
2023-03-12T18:12:15.513Z,2.40
2023-03-12T18:14:46.637Z,2.42
2023-03-12T18:17:16.034Z,2.42
2023-03-12T18:19:51.173Z,2.43
2023-03-12T18:22:20.270Z,2.41
2023-03-12T18:24:50.199Z,2.37
2023-03-12T18:27:19.387Z,2.32
2023-03-12T18:29:48.925Z,2.28
2023-03-12T18:32:18.024Z,2.29
2023-03-12T18:34:48.003Z,2.29
2023-03-12T18:37:17.201Z,2.28
2023-03-12T18:39:47.728Z,2.29
2023-03-12T18:42:16.734Z,2.26
2023-03-12T18:44:45.916Z,2.21
2023-03-12T18:47:15.020Z,2.17
2023-03-12T18:49:44.214Z,2.12
2023-03-12T18:52:13.539Z,2.11
2023-03-12T18:54:42.707Z,2.10
2023-03-12T18:57:12.825Z,2.06
2023-03-12T18:59:45.709Z,2.01
2023-03-12T19:02:16.652Z,1.93
2023-03-12T19:04:46.069Z,1.85
2023-03-12T19:07:14.941Z,1.83
2023-03-12T19:09:44.245Z,1.82
2023-03-12T19:12:13.233Z,1.84
2023-03-12T19:14:42.227Z,1.78
2023-03-12T19:17:12.651Z,1.68
2023-03-12T19:19:43.087Z,1.59
2023-03-12T19:22:12.994Z,1.50
2023-03-12T19:24:43.267Z,1.42
2023-03-12T19:27:14.356Z,1.35
2023-03-12T19:29:45.096Z,1.32
2023-03-12T19:32:13.880Z,1.30
2023-03-12T19:34:51.147Z,1.31
2023-03-12T19:37:22.623Z,1.39
2023-03-12T19:39:51.615Z,1.46
2023-03-12T19:42:20.601Z,1.50
2023-03-12T19:44:49.793Z,1.52
2023-03-12T19:47:19.298Z,1.50
2023-03-12T19:49:48.394Z,1.49
2023-03-12T19:52:22.217Z,1.51
2023-03-12T19:55:03.348Z,1.56
2023-03-12T19:57:34.270Z,1.55
2023-03-12T20:00:07.948Z,1.53
2023-03-12T20:02:37.198Z,1.55
2023-03-12T20:05:07.850Z,1.52
2023-03-12T20:07:37.213Z,1.46
2023-03-12T20:10:10.440Z,1.44
2023-03-12T20:12:40.052Z,1.41
2023-03-12T20:15:09.669Z,1.36
2023-03-12T20:17:39.296Z,1.31
2023-03-12T20:20:09.205Z,1.27
2023-03-12T20:22:38.287Z,1.22
2023-03-12T20:25:08.390Z,1.20
2023-03-12T20:27:38.916Z,1.17
2023-03-12T20:30:08.531Z,1.13
2023-03-12T20:32:40.941Z,1.12
2023-03-12T20:35:10.435Z,1.12
2023-03-12T20:37:41.261Z,1.13
2023-03-12T20:40:10.840Z,1.12
2023-03-12T20:42:44.236Z,1.11
2023-03-12T20:45:13.432Z,1.08
2023-03-12T20:47:42.530Z,1.08
2023-03-12T20:50:11.835Z,1.08
2023-03-12T20:52:40.726Z,1.11
2023-03-12T20:55:10.039Z,1.13
2023-03-12T20:57:40.051Z,1.16
2023-03-12T21:00:09.170Z,1.21
2023-03-12T21:02:40.134Z,1.33
2023-03-12T21:05:11.513Z,1.45
2023-03-12T21:07:40.373Z,1.54
2023-03-12T21:10:10.124Z,1.60
2023-03-12T21:12:47.742Z,1.62
2023-03-12T21:15:16.511Z,1.65
2023-03-12T21:17:45.706Z,1.68
2023-03-12T21:20:17.669Z,1.69
2023-03-12T21:22:47.908Z,1.69
2023-03-12T21:25:16.684Z,1.72
2023-03-12T21:27:51.194Z,1.74
2023-03-12T21:30:21.523Z,1.79
2023-03-12T21:32:54.950Z,1.83
2023-03-12T21:35:24.071Z,1.84
2023-03-12T21:37:52.703Z,1.87
2023-03-12T21:40:22.212Z,1.89
2023-03-12T21:42:51.301Z,1.91
2023-03-12T21:45:24.098Z,1.90
2023-03-12T21:47:54.229Z,1.88
2023-03-12T21:50:29.641Z,1.87
2023-03-12T21:52:58.636Z,1.84
2023-03-12T21:55:27.534Z,1.78
2023-03-12T21:57:56.747Z,1.74
2023-03-12T22:00:25.717Z,1.73
2023-03-12T22:02:56.037Z,1.72
2023-03-12T22:05:24.736Z,1.74
2023-03-12T22:07:53.406Z,1.78
2023-03-12T22:10:22.504Z,1.79
2023-03-12T22:12:51.319Z,1.76
2023-03-12T22:15:20.178Z,1.77
2023-03-12T22:17:49.888Z,1.79
2023-03-12T22:20:18.679Z,1.82
2023-03-12T22:22:53.827Z,1.84
2023-03-12T22:25:22.288Z,1.85
2023-03-12T22:27:50.984Z,1.87
2023-03-12T22:30:20.200Z,1.88
2023-03-12T22:32:49.058Z,1.89
2023-03-12T22:35:18.060Z,1.88
2023-03-12T22:37:46.843Z,1.86
2023-03-12T22:40:15.839Z,1.82
2023-03-12T22:42:51.386Z,1.73
2023-03-12T22:45:20.169Z,1.66
2023-03-12T22:47:48.965Z,1.65
2023-03-12T22:50:18.572Z,1.63
2023-03-12T22:52:51.866Z,1.63
2023-03-12T22:55:20.859Z,1.64
2023-03-12T22:57:49.963Z,1.61
2023-03-12T23:00:20.019Z,1.61
2023-03-12T23:02:48.983Z,1.63
2023-03-12T23:05:18.463Z,1.65
2023-03-12T23:07:47.767Z,1.66
2023-03-12T23:10:17.578Z,1.66
2023-03-12T23:12:46.155Z,1.67
2023-03-12T23:15:15.354Z,1.65
2023-03-12T23:17:44.083Z,1.64
2023-03-12T23:20:13.860Z,1.64
2023-03-12T23:22:42.639Z,1.64
2023-03-12T23:25:12.045Z,1.65
2023-03-12T23:27:41.341Z,1.63
2023-03-12T23:30:10.436Z,1.62
2023-03-12T23:32:39.639Z,1.63
2023-03-12T23:35:08.623Z,1.65
2023-03-12T23:37:37.616Z,1.67
2023-03-12T23:40:07.133Z,1.70
2023-03-12T23:42:44.725Z,1.75
2023-03-12T23:45:13.506Z,1.78
2023-03-12T23:47:42.293Z,1.78
2023-03-12T23:50:11.594Z,1.74
2023-03-12T23:52:40.792Z,1.72
2023-03-12T23:55:10.296Z,1.76
2023-03-12T23:57:39.185Z,1.80
